Saltar para o conteúdo principal

Carrazêda de Ansiães

ID 1210644 · 41.2333, -7.2833 mapa

Última leitura · 2026-05-09 18:00 (Europe/Lisbon)

Temperatura
9.8 °C
Humidade
88 %
Pressão
Precipitação
3.3 mm
Radiação
321 W/m²
Velocidade do vento
6.8 km/h
Direcção do vento
SW · Sudoeste

Histórico de 24 horas

Hora (Europe/Lisbon) Temperatura Humidade Pressão Chuva Vento Direcção
2026-05-09 18:00 9.8 °C 88 % 3.3 mm 6.8 km/h SW
2026-05-09 17:00 10.2 °C 85 % 0.8 mm 7.2 km/h S
2026-05-09 16:00 9.9 °C 86 % 0.6 mm 10.1 km/h S
2026-05-09 15:00 9.8 °C 90 % 0.9 mm 16.9 km/h SE
2026-05-09 14:00 10.0 °C 87 % 1.0 mm 6.5 km/h SE
2026-05-09 13:00 10.0 °C 86 % 0.1 mm 9.0 km/h SE
2026-05-09 12:00 9.4 °C 87 % 1.2 mm 8.6 km/h S
2026-05-09 11:00 9.6 °C 80 % 0.4 mm 10.8 km/h SE
2026-05-09 10:00 10.2 °C 73 % 0.0 mm 8.6 km/h SE
2026-05-09 09:00 9.4 °C 79 % 0.0 mm 6.8 km/h SE
2026-05-09 08:00 8.6 °C 82 % 0.0 mm 4.0 km/h E
2026-05-09 07:00 7.8 °C 86 % 0.0 mm 9.0 km/h SE
2026-05-09 06:00 8.9 °C 82 % 0.0 mm 4.3 km/h S
2026-05-09 05:00 9.4 °C 81 % 0.0 mm 7.2 km/h S
2026-05-09 04:00 9.0 °C 85 % 0.0 mm 9.0 km/h S
2026-05-09 03:00 8.6 °C 88 % 0.0 mm 1.1 km/h SW
2026-05-09 02:00 9.4 °C 81 % 0.4 mm 1.8 km/h E
2026-05-09 01:00 9.5 °C 80 % 0.0 mm 8.3 km/h E
2026-05-09 00:00 9.2 °C 80 % 0.0 mm 5.0 km/h E
2026-05-08 23:00 7.7 °C 84 % 0.0 mm 6.8 km/h NE
2026-05-08 22:00 7.6 °C 86 % 0.0 mm 0.4 km/h E
2026-05-08 21:00 8.9 °C 83 % 0.0 mm 1.4 km/h N
2026-05-08 20:00 11.7 °C 66 % 0.0 mm 0.4 km/h NE
2026-05-08 19:00 13.0 °C 58 % 0.0 mm 1.8 km/h W